Terminal Aerodrome Forecast
Issued by NWS Houston/Galveston, TX

Home | Current Version | Previous Version | Text Only | Print | Product List | Glossary On
Versions: 1 2 3 4 5 6 7 8 9 10 11 12 13 14 15 16 17 18 19 20 21 22 23 24 25 26 27 28 29 30 31 32 33 34 35 36 37 38 39 40 41 42 43 44 45 46
000
FTUS44 KHGX 181730
TAFCLL
TAF
KCLL 181730Z 1818/1918 18004KT P6SM SCT030 BKN040
     FM182000 20007KT P6SM VCSH FEW015 SCT025 OVC120
     FM190200 VRB04KT P6SM VCTS SCT030 BKN040CB
      TEMPO 1902/1905 VRB15KT 4SM TSRA BKN028CB
     FM190900 19004KT 5SM BR BKN012
     FM191500 21015KT P6SM SCT015 BKN250=

USA.gov is the U.S. government's official web portal to all federal, state and local government web resources and services.